createdAt,value
2018-07-26T00:00:10.534Z,67.36
2018-07-26T00:02:38.555Z,66.96
2018-07-26T00:05:06.665Z,67.42
2018-07-26T00:07:35.636Z,67.18
2018-07-26T00:10:04.990Z,67.25
2018-07-26T00:12:33.029Z,67.85
2018-07-26T00:15:01.107Z,67.53
2018-07-26T00:17:29.219Z,67.91
2018-07-26T00:19:57.176Z,67.90
2018-07-26T00:22:25.270Z,68.69
2018-07-26T00:24:53.465Z,68.02
2018-07-26T00:27:21.541Z,67.03
2018-07-26T00:29:49.594Z,68.06
2018-07-26T00:32:17.615Z,67.37
2018-07-26T00:34:45.668Z,67.95
2018-07-26T00:37:13.634Z,67.42
2018-07-26T00:39:41.602Z,67.04
2018-07-26T00:42:09.599Z,67.11
2018-07-26T00:44:37.666Z,66.99
2018-07-26T00:47:05.936Z,67.03
2018-07-26T00:49:34.060Z,66.83
2018-07-26T00:52:02.174Z,66.21
2018-07-26T00:54:30.246Z,65.84
2018-07-26T00:56:58.723Z,65.87
2018-07-26T00:59:26.703Z,65.92
2018-07-26T01:01:54.728Z,66.01
2018-07-26T01:04:22.793Z,65.62
2018-07-26T01:06:50.763Z,66.67
2018-07-26T01:09:18.884Z,66.29
2018-07-26T01:11:47.101Z,65.67
2018-07-26T01:14:15.324Z,65.86
2018-07-26T01:16:43.378Z,66.32
2018-07-26T01:19:11.418Z,65.86
2018-07-26T01:21:39.552Z,67.08
2018-07-26T01:24:07.586Z,66.53
2018-07-26T01:26:36.047Z,66.91
2018-07-26T01:29:04.223Z,66.86
2018-07-26T01:31:32.540Z,66.85
2018-07-26T01:34:00.570Z,66.11
2018-07-26T01:36:28.469Z,66.95
2018-07-26T01:38:56.517Z,67.08
2018-07-26T01:41:24.603Z,67.15
2018-07-26T01:44:03.822Z,68.00
2018-07-26T01:46:32.079Z,68.48
2018-07-26T01:49:00.256Z,68.79
2018-07-26T01:51:28.321Z,68.85
2018-07-26T01:53:56.544Z,69.75
2018-07-26T01:56:24.618Z,69.76
2018-07-26T01:58:52.565Z,69.10
2018-07-26T02:01:20.940Z,69.48
2018-07-26T02:03:48.853Z,69.38
2018-07-26T02:06:16.850Z,69.64
2018-07-26T02:08:44.911Z,69.04
2018-07-26T02:11:12.858Z,69.29
2018-07-26T02:13:41.293Z,69.08
2018-07-26T02:16:09.448Z,69.61
2018-07-26T02:18:37.502Z,68.89
2018-07-26T02:21:05.509Z,69.39
2018-07-26T02:23:33.491Z,69.15
2018-07-26T02:26:01.530Z,69.55
2018-07-26T02:28:29.499Z,69.35
2018-07-26T02:30:57.625Z,68.99
2018-07-26T02:33:25.619Z,69.26
2018-07-26T02:35:53.642Z,69.63
2018-07-26T02:38:21.697Z,70.22
2018-07-26T02:40:49.706Z,69.96
2018-07-26T02:43:17.805Z,70.10
2018-07-26T02:45:45.855Z,70.07
2018-07-26T02:48:13.801Z,70.00
2018-07-26T02:50:41.879Z,70.32
2018-07-26T02:53:09.852Z,69.48
2018-07-26T02:55:38.009Z,70.41
2018-07-26T02:58:06.595Z,69.71
2018-07-26T03:00:34.771Z,69.73
2018-07-26T03:03:02.948Z,69.77
2018-07-26T03:05:31.003Z,69.18
2018-07-26T03:07:58.960Z,68.46
2018-07-26T03:10:26.898Z,68.81
2018-07-26T03:12:54.960Z,69.01
2018-07-26T03:15:22.935Z,68.38
2018-07-26T03:17:50.904Z,69.08
2018-07-26T03:20:19.113Z,69.53
2018-07-26T03:22:47.238Z,69.37
2018-07-26T03:25:15.225Z,69.56
2018-07-26T03:27:43.202Z,69.87
2018-07-26T03:30:11.228Z,69.90
2018-07-26T03:32:39.414Z,69.37
2018-07-26T03:35:07.407Z,69.95
2018-07-26T03:37:35.467Z,69.49
2018-07-26T03:40:03.692Z,69.84
2018-07-26T03:42:31.745Z,69.82
2018-07-26T03:44:59.709Z,69.42
2018-07-26T03:47:27.823Z,69.05
2018-07-26T03:49:55.813Z,69.21
2018-07-26T03:52:23.781Z,68.92
2018-07-26T03:54:51.749Z,68.93
2018-07-26T03:57:19.900Z,69.37
2018-07-26T03:59:48.015Z,69.28
2018-07-26T04:02:16.024Z,68.98
2018-07-26T04:04:44.090Z,68.62
2018-07-26T04:07:12.178Z,68.71
2018-07-26T04:09:40.165Z,68.90
2018-07-26T04:12:08.167Z,69.13
2018-07-26T04:14:36.190Z,69.51
2018-07-26T04:17:04.248Z,69.08
2018-07-26T04:19:32.290Z,69.69
2018-07-26T04:22:00.307Z,69.31
2018-07-26T04:24:28.302Z,69.14
2018-07-26T04:26:56.413Z,69.67
2018-07-26T04:29:24.543Z,68.79
2018-07-26T04:31:52.858Z,69.11
2018-07-26T04:34:20.939Z,69.16
2018-07-26T04:36:48.979Z,68.97
2018-07-26T04:39:17.051Z,68.56
2018-07-26T04:41:45.201Z,68.48
2018-07-26T04:44:13.391Z,69.30
2018-07-26T04:46:42.487Z,68.76
2018-07-26T04:49:10.477Z,68.98
2018-07-26T04:51:38.674Z,69.05
2018-07-26T04:54:06.868Z,68.36
2018-07-26T04:56:34.991Z,68.29
2018-07-26T04:59:03.496Z,68.21
2018-07-26T05:01:32.605Z,68.39
2018-07-26T05:04:00.754Z,68.21
2018-07-26T05:06:29.095Z,68.33
2018-07-26T05:08:57.432Z,67.78
2018-07-26T05:11:26.820Z,67.34
2018-07-26T05:13:55.076Z,66.54
2018-07-26T05:16:23.079Z,66.29
2018-07-26T05:18:51.452Z,66.66
2018-07-26T05:21:19.490Z,66.32
2018-07-26T05:23:47.995Z,67.01
2018-07-26T05:26:16.238Z,67.04
2018-07-26T05:28:45.927Z,66.09
2018-07-26T05:31:14.504Z,66.66
2018-07-26T05:33:43.831Z,66.80
2018-07-26T05:36:11.991Z,66.20
2018-07-26T05:38:40.341Z,66.35
2018-07-26T05:41:08.459Z,65.47
2018-07-26T05:43:36.441Z,66.14
2018-07-26T05:46:04.728Z,65.21
2018-07-26T05:48:32.825Z,65.73
2018-07-26T05:51:00.995Z,65.31
2018-07-26T05:53:28.988Z,64.50
2018-07-26T05:55:57.059Z,64.02
2018-07-26T05:58:25.144Z,62.59
2018-07-26T06:00:53.303Z,62.37
2018-07-26T06:03:21.428Z,62.87
2018-07-26T06:05:49.618Z,62.56
2018-07-26T06:08:17.696Z,62.38
2018-07-26T06:10:45.762Z,61.96
2018-07-26T06:13:13.807Z,62.99
2018-07-26T06:15:41.934Z,63.54
2018-07-26T06:18:09.891Z,63.08
2018-07-26T06:20:38.185Z,63.27
2018-07-26T06:23:06.239Z,62.14
2018-07-26T06:25:34.315Z,62.95
2018-07-26T06:28:02.581Z,63.11
2018-07-26T06:30:30.630Z,63.46
2018-07-26T06:32:58.781Z,62.92
2018-07-26T06:35:26.907Z,63.37
2018-07-26T06:37:55.063Z,63.73
2018-07-26T06:40:23.054Z,63.71
2018-07-26T06:42:51.173Z,63.57
2018-07-26T06:45:19.202Z,63.18
2018-07-26T06:47:47.670Z,62.86
2018-07-26T06:50:15.823Z,61.82
2018-07-26T06:52:43.882Z,62.81
2018-07-26T06:55:11.927Z,62.12
2018-07-26T06:57:39.907Z,61.85
2018-07-26T07:00:09.724Z,61.52
2018-07-26T07:02:38.773Z,61.25
2018-07-26T07:05:07.109Z,61.69
2018-07-26T07:07:35.015Z,61.70
2018-07-26T07:10:03.151Z,61.48
2018-07-26T07:12:31.201Z,61.36
2018-07-26T07:14:59.327Z,61.80
2018-07-26T07:17:27.485Z,60.72
2018-07-26T07:19:55.661Z,60.31
2018-07-26T07:22:23.873Z,62.11
2018-07-26T07:24:51.924Z,57.83
2018-07-26T07:27:20.146Z,58.98
2018-07-26T07:29:48.158Z,58.63
2018-07-26T07:32:16.304Z,58.60
2018-07-26T07:34:44.384Z,58.00
2018-07-26T07:37:13.162Z,58.74
2018-07-26T07:39:41.584Z,58.20
2018-07-26T07:42:09.636Z,57.29
2018-07-26T07:44:37.581Z,55.74
2018-07-26T07:47:06.018Z,55.91
2018-07-26T07:49:34.099Z,55.72
2018-07-26T07:52:02.283Z,56.13
2018-07-26T07:54:30.390Z,56.33
2018-07-26T07:56:58.730Z,57.43
2018-07-26T07:59:26.902Z,56.58
2018-07-26T08:01:54.998Z,56.57
2018-07-26T08:04:23.091Z,56.50
2018-07-26T08:06:51.319Z,55.66
2018-07-26T08:09:19.403Z,55.18
2018-07-26T08:11:47.401Z,54.61
2018-07-26T08:14:15.429Z,53.83
2018-07-26T08:16:43.480Z,55.39
2018-07-26T08:19:11.491Z,55.67
2018-07-26T08:21:39.526Z,56.60
2018-07-26T08:24:07.743Z,54.59
2018-07-26T08:26:35.898Z,53.76
2018-07-26T08:29:04.114Z,54.38
2018-07-26T08:31:32.191Z,55.34
2018-07-26T08:34:00.235Z,55.74
2018-07-26T08:36:28.310Z,55.96
2018-07-26T08:38:56.411Z,54.50
2018-07-26T08:41:24.891Z,55.62
2018-07-26T08:43:53.022Z,54.31
2018-07-26T08:46:21.135Z,54.19
2018-07-26T08:48:49.138Z,53.34
2018-07-26T08:51:17.323Z,54.02
2018-07-26T08:53:50.924Z,54.48
2018-07-26T08:56:18.987Z,54.41
2018-07-26T08:58:47.158Z,54.28
2018-07-26T09:01:15.245Z,54.35
2018-07-26T09:03:43.397Z,54.77
2018-07-26T09:06:12.077Z,53.62
2018-07-26T09:08:40.123Z,52.97
2018-07-26T09:11:08.453Z,54.96
2018-07-26T09:13:36.505Z,52.66
2018-07-26T09:16:05.174Z,53.74
2018-07-26T09:18:33.300Z,51.77
2018-07-26T09:21:01.340Z,52.55
2018-07-26T09:23:29.356Z,52.78
2018-07-26T09:25:57.458Z,52.47
2018-07-26T09:28:25.724Z,52.60
2018-07-26T09:30:53.814Z,53.72
2018-07-26T09:33:21.861Z,50.74
2018-07-26T09:35:49.886Z,50.82
2018-07-26T09:38:18.156Z,51.35
2018-07-26T09:40:46.350Z,51.02
2018-07-26T09:43:14.526Z,51.13
2018-07-26T09:45:42.608Z,50.00
2018-07-26T09:48:11.031Z,51.73
2018-07-26T09:50:39.133Z,50.64
2018-07-26T09:53:07.104Z,50.38
2018-07-26T09:55:36.296Z,50.33
2018-07-26T09:58:04.392Z,50.59
2018-07-26T10:00:38.272Z,49.28
2018-07-26T10:03:06.423Z,49.30
2018-07-26T10:05:34.351Z,49.89
2018-07-26T10:08:02.445Z,49.38
2018-07-26T10:10:30.489Z,49.79
2018-07-26T10:12:58.527Z,48.42
2018-07-26T10:15:26.655Z,47.61
2018-07-26T10:17:54.898Z,48.92
2018-07-26T10:20:23.036Z,46.94
2018-07-26T10:22:51.191Z,47.60
2018-07-26T10:25:19.265Z,48.79
2018-07-26T10:27:47.224Z,48.06
2018-07-26T10:30:15.390Z,49.67
2018-07-26T10:32:43.459Z,49.59
2018-07-26T10:35:11.434Z,50.06
2018-07-26T10:37:39.586Z,48.52
2018-07-26T10:40:07.775Z,49.36
2018-07-26T10:42:35.858Z,49.14
2018-07-26T10:45:04.271Z,48.03
2018-07-26T10:47:32.361Z,48.77
2018-07-26T10:50:00.785Z,48.78
2018-07-26T10:52:28.832Z,49.40
2018-07-26T10:54:56.818Z,49.33
2018-07-26T10:57:24.871Z,49.65
2018-07-26T10:59:52.874Z,49.30
2018-07-26T11:02:20.961Z,49.11
2018-07-26T11:04:48.888Z,47.85
2018-07-26T11:07:16.908Z,48.84
2018-07-26T11:09:44.992Z,47.92
2018-07-26T11:12:12.942Z,46.13
2018-07-26T11:14:41.071Z,46.65
2018-07-26T11:17:11.356Z,45.85
2018-07-26T11:19:39.358Z,44.86
2018-07-26T11:22:07.732Z,45.50
2018-07-26T11:24:35.928Z,43.56
2018-07-26T11:27:04.193Z,45.46
2018-07-26T11:29:32.209Z,45.81
2018-07-26T11:32:00.243Z,46.58
2018-07-26T11:34:28.351Z,46.30
2018-07-26T11:36:56.541Z,46.09
2018-07-26T11:39:25.565Z,46.25
2018-07-26T11:41:53.567Z,45.78
2018-07-26T11:44:21.653Z,47.07
2018-07-26T11:46:49.761Z,46.30
2018-07-26T11:49:17.831Z,48.56
2018-07-26T11:51:45.823Z,50.49
2018-07-26T11:54:13.935Z,50.60
2018-07-26T11:56:41.904Z,50.48
2018-07-26T11:59:09.915Z,51.29
2018-07-26T12:01:38.043Z,50.24
2018-07-26T12:04:06.126Z,51.17
2018-07-26T12:06:35.128Z,51.22
2018-07-26T12:09:04.031Z,49.76
2018-07-26T12:11:32.176Z,49.36
2018-07-26T12:14:00.356Z,50.00
2018-07-26T12:16:28.472Z,50.95
2018-07-26T12:18:56.642Z,52.30
2018-07-26T12:21:24.795Z,52.82
2018-07-26T12:23:55.169Z,53.02
2018-07-26T12:26:26.416Z,53.25
2018-07-26T12:28:55.473Z,51.34
2018-07-26T12:31:23.972Z,50.85
2018-07-26T12:33:56.057Z,51.33
2018-07-26T12:36:29.130Z,51.88
2018-07-26T12:39:03.624Z,50.19
2018-07-26T12:41:31.872Z,49.53
2018-07-26T12:43:59.934Z,47.29
2018-07-26T12:46:28.025Z,46.51
2018-07-26T12:48:56.071Z,46.03
2018-07-26T12:51:24.174Z,45.71
2018-07-26T12:53:52.398Z,46.13
2018-07-26T12:56:20.698Z,46.38
2018-07-26T12:58:48.878Z,45.77
2018-07-26T13:01:17.290Z,44.84
2018-07-26T13:03:46.427Z,43.12
2018-07-26T13:06:14.724Z,40.30
2018-07-26T13:08:42.959Z,38.80
2018-07-26T13:11:11.410Z,40.77
2018-07-26T13:13:39.502Z,42.06
2018-07-26T13:16:07.719Z,44.28
2018-07-26T13:18:35.882Z,44.25
2018-07-26T13:21:04.057Z,45.68
2018-07-26T13:23:32.370Z,47.11
2018-07-26T13:26:00.604Z,47.68
2018-07-26T13:28:28.992Z,48.71
2018-07-26T13:30:57.025Z,48.81
2018-07-26T13:33:25.115Z,48.40
2018-07-26T13:35:54.367Z,49.11
2018-07-26T13:38:22.560Z,50.46
2018-07-26T13:40:50.911Z,51.21
2018-07-26T13:43:19.095Z,52.56
2018-07-26T13:45:47.297Z,52.89
2018-07-26T13:48:15.532Z,54.21
2018-07-26T13:50:43.618Z,56.17
2018-07-26T13:53:11.718Z,56.94
2018-07-26T13:55:39.888Z,57.21
2018-07-26T13:58:08.055Z,58.40
2018-07-26T14:00:36.562Z,58.53
2018-07-26T14:03:04.667Z,58.97
2018-07-26T14:05:32.708Z,58.56
2018-07-26T14:08:00.786Z,58.21
2018-07-26T14:10:28.860Z,57.53
2018-07-26T14:12:57.310Z,58.22
2018-07-26T14:15:26.040Z,57.26
2018-07-26T14:17:54.057Z,57.34
2018-07-26T14:20:22.359Z,57.77
2018-07-26T14:22:50.364Z,57.83
2018-07-26T14:25:18.483Z,57.32
2018-07-26T14:27:46.493Z,57.40
2018-07-26T14:30:14.555Z,55.52
2018-07-26T14:32:43.086Z,55.35
2018-07-26T14:35:11.206Z,54.12
2018-07-26T14:37:39.850Z,53.57
2018-07-26T14:40:08.137Z,50.27
2018-07-26T14:42:36.238Z,46.79
2018-07-26T14:45:05.282Z,44.09
2018-07-26T14:47:33.368Z,43.00
2018-07-26T14:50:01.527Z,44.14
2018-07-26T14:52:29.707Z,45.92
2018-07-26T14:54:57.784Z,46.31
2018-07-26T14:57:25.992Z,46.15
2018-07-26T14:59:54.525Z,44.88
2018-07-26T15:02:23.463Z,42.94
2018-07-26T15:04:51.462Z,43.27
2018-07-26T15:07:19.516Z,43.62
2018-07-26T15:09:47.749Z,41.89
2018-07-26T15:12:15.787Z,40.94
2018-07-26T15:14:44.056Z,40.80
2018-07-26T15:17:12.750Z,39.89
2018-07-26T15:19:41.065Z,40.19
2018-07-26T15:22:09.469Z,39.21
2018-07-26T15:24:37.478Z,38.39
2018-07-26T15:27:06.483Z,39.44
2018-07-26T15:29:34.639Z,39.07
2018-07-26T15:32:02.881Z,38.01
2018-07-26T15:34:30.858Z,36.50
2018-07-26T15:36:59.022Z,36.52
2018-07-26T15:39:27.532Z,37.34
2018-07-26T15:41:55.609Z,37.44
2018-07-26T15:44:23.512Z,37.37
2018-07-26T15:46:51.701Z,37.27
2018-07-26T15:49:19.817Z,37.09
2018-07-26T15:51:47.856Z,35.94
2018-07-26T15:54:16.027Z,36.42
2018-07-26T15:56:44.522Z,37.36
2018-07-26T15:59:12.747Z,38.14
2018-07-26T16:01:40.898Z,39.20
2018-07-26T16:04:08.981Z,41.06
2018-07-26T16:06:37.124Z,41.95
2018-07-26T16:09:08.091Z,42.99
2018-07-26T16:11:37.058Z,44.34
2018-07-26T16:14:05.220Z,44.85
2018-07-26T16:16:33.298Z,45.27
2018-07-26T16:19:01.408Z,46.14
2018-07-26T16:21:29.542Z,45.91
2018-07-26T16:23:57.990Z,47.00
2018-07-26T16:26:26.175Z,46.63
2018-07-26T16:28:54.417Z,46.65
2018-07-26T16:31:22.394Z,46.92
2018-07-26T16:33:50.387Z,46.78
2018-07-26T16:36:18.426Z,48.01
2018-07-26T16:38:46.652Z,47.56
2018-07-26T16:41:14.904Z,47.93
2018-07-26T16:43:43.366Z,48.52
2018-07-26T16:46:11.443Z,48.54
2018-07-26T16:48:39.615Z,49.05
2018-07-26T16:51:08.112Z,49.35
2018-07-26T16:53:36.110Z,49.27
2018-07-26T16:56:04.143Z,49.36
2018-07-26T16:58:32.532Z,50.57
2018-07-26T17:01:00.628Z,51.37
2018-07-26T17:03:29.413Z,51.14
2018-07-26T17:05:57.510Z,51.53
2018-07-26T17:08:25.791Z,52.57
2018-07-26T17:10:54.163Z,55.08
2018-07-26T17:13:22.137Z,56.37
2018-07-26T17:15:50.928Z,55.79
2018-07-26T17:18:19.027Z,56.04
2018-07-26T17:20:47.136Z,56.70
2018-07-26T17:23:15.405Z,56.82
2018-07-26T17:25:44.395Z,57.55
2018-07-26T17:28:12.354Z,57.91
2018-07-26T17:30:41.571Z,57.56
2018-07-26T17:33:09.843Z,59.08
2018-07-26T17:35:37.967Z,60.16
2018-07-26T17:38:06.388Z,60.03
2018-07-26T17:40:34.544Z,61.08
2018-07-26T17:43:02.622Z,60.48
2018-07-26T17:45:31.185Z,60.23
2018-07-26T17:47:59.282Z,60.30
2018-07-26T17:50:27.318Z,60.17
2018-07-26T17:52:55.437Z,60.56
2018-07-26T17:55:23.463Z,60.37
2018-07-26T17:57:51.806Z,61.06
2018-07-26T18:00:20.481Z,62.52
2018-07-26T18:02:48.524Z,62.56
2018-07-26T18:05:19.068Z,63.66
2018-07-26T18:07:47.845Z,64.12
2018-07-26T18:10:15.893Z,64.19
2018-07-26T18:12:44.457Z,63.99
2018-07-26T18:15:12.892Z,64.33
2018-07-26T18:17:41.055Z,63.95
2018-07-26T18:20:09.427Z,64.41
2018-07-26T18:22:37.902Z,64.44
2018-07-26T18:25:05.914Z,65.09
2018-07-26T18:27:34.026Z,65.00
2018-07-26T18:30:02.297Z,65.34
2018-07-26T18:32:30.746Z,65.03
2018-07-26T18:34:59.831Z,64.53
2018-07-26T18:37:28.035Z,64.68
2018-07-26T18:39:56.799Z,63.69
2018-07-26T18:42:24.857Z,64.00
2018-07-26T18:44:53.218Z,64.40
2018-07-26T18:47:22.051Z,64.25
2018-07-26T18:49:50.569Z,63.90
2018-07-26T18:52:18.706Z,63.85
2018-07-26T18:54:48.465Z,63.98
2018-07-26T18:57:18.220Z,62.93
2018-07-26T18:59:46.864Z,62.77
2018-07-26T19:02:15.987Z,62.66
2018-07-26T19:04:44.204Z,62.90
2018-07-26T19:07:12.387Z,62.04
2018-07-26T19:09:40.527Z,63.30
2018-07-26T19:12:08.655Z,63.16
2018-07-26T19:14:38.166Z,64.01
2018-07-26T19:17:06.332Z,63.92
2018-07-26T19:19:34.562Z,64.01
2018-07-26T19:22:02.667Z,64.52
2018-07-26T19:24:31.362Z,65.02
2018-07-26T19:27:00.421Z,64.56
2018-07-26T19:29:28.467Z,65.06
2018-07-26T19:31:57.230Z,64.53
2018-07-26T19:34:25.847Z,64.40
2018-07-26T19:36:53.987Z,64.54
2018-07-26T19:39:22.083Z,64.48
2018-07-26T19:41:50.647Z,64.42
2018-07-26T19:44:18.719Z,64.93
2018-07-26T19:46:47.240Z,65.42
2018-07-26T19:49:15.625Z,65.12
2018-07-26T19:51:44.323Z,64.97
2018-07-26T19:54:13.206Z,64.84
2018-07-26T19:56:41.753Z,65.93
2018-07-26T19:59:10.037Z,65.62
2018-07-26T20:01:38.637Z,66.49
2018-07-26T20:04:06.771Z,66.59
2018-07-26T20:06:35.299Z,67.40
2018-07-26T20:09:05.679Z,66.87
2018-07-26T20:11:34.383Z,67.56
2018-07-26T20:14:02.393Z,68.34
2018-07-26T20:16:31.010Z,67.39
2018-07-26T20:18:59.627Z,67.63
2018-07-26T20:21:27.651Z,67.21
2018-07-26T20:23:55.787Z,68.11
2018-07-26T20:26:23.856Z,68.00
2018-07-26T20:28:52.358Z,67.16
2018-07-26T20:31:21.105Z,67.44
2018-07-26T20:33:49.191Z,67.27
2018-07-26T20:36:17.284Z,67.11
2018-07-26T20:38:45.923Z,67.41
2018-07-26T20:41:14.384Z,67.98
2018-07-26T20:43:42.419Z,67.32
2018-07-26T20:46:10.394Z,67.57
2018-07-26T20:48:38.968Z,67.48
2018-07-26T20:51:07.327Z,67.99
2018-07-26T20:53:35.805Z,69.09
2018-07-26T20:56:04.568Z,69.72
2018-07-26T20:58:32.572Z,70.37
2018-07-26T21:01:00.610Z,72.41
2018-07-26T21:03:28.644Z,76.13
2018-07-26T21:05:56.653Z,79.35
2018-07-26T21:08:24.692Z,81.11
2018-07-26T21:10:52.657Z,81.91
2018-07-26T21:13:20.723Z,82.71
2018-07-26T21:15:49.730Z,83.36
2018-07-26T21:18:17.775Z,82.06
2018-07-26T21:20:45.763Z,82.28
2018-07-26T21:23:13.814Z,81.47
2018-07-26T21:25:41.754Z,81.01
2018-07-26T21:28:09.764Z,80.64
2018-07-26T21:30:37.859Z,81.06
2018-07-26T21:33:05.917Z,80.74
2018-07-26T21:35:33.933Z,80.62
2018-07-26T21:38:02.444Z,79.84
2018-07-26T21:40:31.099Z,79.25
2018-07-26T21:42:59.478Z,79.56
2018-07-26T21:45:27.810Z,79.45
2018-07-26T21:47:56.798Z,78.53
2018-07-26T21:50:25.017Z,78.57
2018-07-26T21:52:53.571Z,78.64
2018-07-26T21:55:22.062Z,79.69
2018-07-26T21:57:50.113Z,79.95
2018-07-26T22:00:18.360Z,79.70
2018-07-26T22:02:46.912Z,79.08
2018-07-26T22:05:15.015Z,78.84
2018-07-26T22:07:43.164Z,79.68
2018-07-26T22:10:11.304Z,79.56
2018-07-26T22:12:39.308Z,79.91
2018-07-26T22:15:07.440Z,80.24
2018-07-26T22:17:35.361Z,79.81
2018-07-26T22:20:03.643Z,80.08
2018-07-26T22:22:31.783Z,79.69
2018-07-26T22:24:59.851Z,79.96
2018-07-26T22:27:28.354Z,79.96
2018-07-26T22:29:56.598Z,80.27
2018-07-26T22:32:24.683Z,79.68
2018-07-26T22:34:52.779Z,79.47
2018-07-26T22:37:20.889Z,79.35
2018-07-26T22:39:49.075Z,78.55
2018-07-26T22:42:18.245Z,78.73
2018-07-26T22:44:46.607Z,78.55
2018-07-26T22:47:14.749Z,79.28
2018-07-26T22:49:42.962Z,79.79
2018-07-26T22:52:11.064Z,80.16
2018-07-26T22:54:39.044Z,79.77
2018-07-26T22:57:07.106Z,79.50
2018-07-26T22:59:35.816Z,79.39
2018-07-26T23:02:04.042Z,79.64
2018-07-26T23:04:32.127Z,80.62
2018-07-26T23:07:00.317Z,80.19
2018-07-26T23:09:28.348Z,80.45
2018-07-26T23:11:57.155Z,81.17
2018-07-26T23:14:25.329Z,81.16
2018-07-26T23:16:53.410Z,81.54
2018-07-26T23:19:21.488Z,82.36
2018-07-26T23:21:49.901Z,82.11
2018-07-26T23:24:17.959Z,81.81
2018-07-26T23:26:45.924Z,82.64
2018-07-26T23:29:13.953Z,81.96
2018-07-26T23:31:41.918Z,82.68
2018-07-26T23:34:09.832Z,82.52
2018-07-26T23:36:37.899Z,82.49
2018-07-26T23:39:08.822Z,82.42
2018-07-26T23:41:36.862Z,81.30
2018-07-26T23:44:05.279Z,81.39
2018-07-26T23:46:33.307Z,81.20
2018-07-26T23:49:01.346Z,80.64
2018-07-26T23:51:29.453Z,80.99
2018-07-26T23:53:57.443Z,81.17
2018-07-26T23:56:25.712Z,80.58
2018-07-26T23:58:53.743Z,81.03
